Jackson Hole (JAC/KJAC)

Information

Location
Jackson Hole, WY
Local Time
23:43 / 11:43 pm
GMT Time
05:43 / 5:43 am
Gates
A4
No FAA reported delays
METAR KJAC 190456Z AUTO 00000KT 10SM CLR 03/M05 A3016 RMK AO2 SLP208 T00331050
TAF KJAC 182321Z 1900/1924 23012KT P6SM SCT250 FM190100 VRB06KT P6SM SCT250 FM191900 19011KT P6SM SCT250 AMD LTD TO CLD VIS AND WIND